This is the latest recevied weather packets stored in our database for station/object IW2NIA-3. If no packets are shown the sender has not sent any weather packets the latest 10 day(s).
| Time | Temp. | Humidity | Pressure | Rain* | Wind** | Luminosity | Snow |
|---|---|---|---|---|---|---|---|
| 1787631513 | 18.33° C | 92% | 1008.6 hPa | 0.51 mm | - | - | - |
| 1787630623 | 18.33° C | 92% | 1008.7 hPa | 0.25 mm | - | - | - |
| 1787629718 | 18.89° C | 92% | 1008.9 hPa | 1.02 mm | - | - | - |
| 1787628808 | 18.89° C | 93% | 1008.9 hPa | 1.78 mm | - | - | - |
| 1787627924 | 18.89° C | 92% | 1009 hPa | 1.78 mm | - | - | - |
| 1787627013 | 18.89° C | 92% | 1009 hPa | 1.78 mm | - | - | - |
| 1787626126 | 18.89° C | 91% | 1009.4 hPa | 0.76 mm | - | - | - |
| 1787625214 | 18.89° C | 92% | 1009.3 hPa | 0 mm | - | - | - |
| 1787624308 | 18.89° C | 92% | 1009.1 hPa | 0 mm | - | - | - |
| 1787623418 | 18.89° C | 93% | 1009.3 hPa | 0 mm | - | - | - |
| 1787622510 | 18.89° C | 93% | 1009.6 hPa | 0.25 mm | - | - | - |
| 1787621621 | 18.89° C | 93% | 1010.1 hPa | 1.52 mm | - | - | - |
| 1787620718 | 18.89° C | 92% | 1010.5 hPa | 7.11 mm | - | - | - |
| 1787619818 | 18.89° C | 92% | 1010.7 hPa | 7.37 mm | - | - | - |
| 1787618910 | 18.89° C | 91% | 1011 hPa | 7.37 mm | - | - | - |
| 1787618027 | 18.89° C | 90% | 1011.3 hPa | 6.1 mm | - | - | - |
| 1787617120 | 18.89° C | 90% | 1010.9 hPa | 0.25 mm | - | - | - |
| 1787616216 | 19.44° C | 89% | 1011.2 hPa | 0 mm | - | - | - |
| 1787615314 | 19.44° C | 89% | 1011.6 hPa | 0 mm | - | - | - |
| 1787614415 | 19.44° C | 88% | 1011.8 hPa | 0 mm | - | - | - |
| 1787613527 | 19.44° C | 88% | 1011.8 hPa | 0 mm | - | - | - |
| 1787612618 | 20° C | 87% | 1011.7 hPa | 0 mm | - | - | - |
| 1787611720 | 20° C | 87% | 1011.8 hPa | 0 mm | - | - | - |
| 1787610811 | 19.44° C | 88% | 1012.1 hPa | 0 mm | - | - | - |
| 1787609908 | 19.44° C | 89% | 1012.1 hPa | 0 mm | - | - | - |
* Rain latest hour (hover to see other rain measurements)
** Current wind speed in m/s (hover to see current wind gust speed)